createdAt,value
2023-03-10T00:00:59.062Z,9.95
2023-03-10T00:03:25.788Z,10.07
2023-03-10T00:05:52.543Z,10.32
2023-03-10T00:08:19.164Z,10.04
2023-03-10T00:10:46.799Z,9.81
2023-03-10T00:13:33.658Z,9.88
2023-03-10T00:16:09.945Z,9.84
2023-03-10T00:18:36.667Z,9.83
2023-03-10T00:21:03.452Z,9.72
2023-03-10T00:23:30.647Z,9.48
2023-03-10T00:25:59.639Z,9.54
2023-03-10T00:28:27.803Z,9.52
2023-03-10T00:31:07.021Z,9.53
2023-03-10T00:33:34.992Z,9.92
2023-03-10T00:36:28.748Z,9.88
2023-03-10T00:38:56.365Z,9.70
2023-03-10T00:41:26.123Z,9.32
2023-03-10T00:43:53.097Z,9.36
2023-03-10T00:46:20.489Z,9.35
2023-03-10T00:48:47.200Z,9.09
2023-03-10T00:51:13.933Z,9.04
2023-03-10T00:53:41.880Z,9.01
2023-03-10T00:56:20.971Z,9.04
2023-03-10T00:58:51.802Z,9.22
2023-03-10T01:01:33.987Z,8.95
2023-03-10T01:04:04.771Z,9.25
2023-03-10T01:06:32.916Z,9.31
2023-03-10T01:08:59.753Z,9.27
2023-03-10T01:11:29.076Z,9.41
2023-03-10T01:14:01.847Z,9.44
2023-03-10T01:16:29.914Z,9.63
2023-03-10T01:18:57.062Z,9.78
2023-03-10T01:21:28.395Z,9.74
2023-03-10T01:23:55.137Z,9.87
2023-03-10T01:26:21.843Z,10.14
2023-03-10T01:28:49.018Z,10.40
2023-03-10T01:31:17.545Z,10.45
2023-03-10T01:33:45.332Z,10.57
2023-03-10T01:36:14.825Z,10.19
2023-03-10T01:38:43.281Z,10.00
2023-03-10T01:41:12.021Z,10.35
2023-03-10T01:43:43.440Z,10.18
2023-03-10T01:46:31.670Z,10.13
2023-03-10T01:49:04.356Z,10.23
2023-03-10T01:51:35.829Z,10.06
2023-03-10T01:54:06.816Z,9.97
2023-03-10T01:56:36.151Z,10.12
2023-03-10T01:59:03.564Z,9.81
2023-03-10T02:01:32.801Z,9.93
2023-03-10T02:04:10.388Z,9.88
2023-03-10T02:06:38.748Z,9.66
2023-03-10T02:09:05.896Z,9.59
2023-03-10T02:11:34.018Z,9.34
2023-03-10T02:14:03.173Z,9.33
2023-03-10T02:16:30.716Z,9.66
2023-03-10T02:18:57.977Z,9.96
2023-03-10T02:21:46.776Z,9.88
2023-03-10T02:24:41.356Z,10.28
2023-03-10T02:27:17.826Z,10.04
2023-03-10T02:30:03.087Z,9.88
2023-03-10T02:32:34.970Z,9.65
2023-03-10T02:35:02.548Z,10.46
2023-03-10T02:37:32.149Z,10.08
2023-03-10T02:39:59.703Z,10.16
2023-03-10T02:42:32.872Z,10.13
2023-03-10T02:44:59.825Z,10.21
2023-03-10T02:47:28.887Z,10.59
2023-03-10T02:49:55.560Z,10.96
2023-03-10T02:52:34.287Z,11.53
2023-03-10T02:55:01.019Z,10.68
2023-03-10T02:57:27.667Z,10.66
2023-03-10T02:59:54.299Z,10.79
2023-03-10T03:02:21.218Z,10.84
2023-03-10T03:04:47.915Z,10.86
2023-03-10T03:07:14.588Z,10.29
2023-03-10T03:09:41.224Z,10.29
2023-03-10T03:12:08.389Z,11.03
2023-03-10T03:14:35.001Z,10.83
2023-03-10T03:17:01.790Z,10.47
2023-03-10T03:19:29.901Z,10.31
2023-03-10T03:21:56.771Z,10.68
2023-03-10T03:24:23.459Z,10.83
2023-03-10T03:26:50.339Z,10.71
2023-03-10T03:29:16.984Z,11.06
2023-03-10T03:31:43.784Z,10.80
2023-03-10T03:34:10.869Z,10.96
2023-03-10T03:36:37.936Z,10.81
2023-03-10T03:39:05.237Z,11.21
2023-03-10T03:41:32.674Z,10.87
2023-03-10T03:44:00.213Z,10.95
2023-03-10T03:46:26.941Z,11.15
2023-03-10T03:48:53.641Z,11.27
2023-03-10T03:51:20.362Z,11.92
2023-03-10T03:53:47.043Z,11.81
2023-03-10T03:56:13.715Z,12.03
2023-03-10T03:58:40.320Z,11.54
2023-03-10T04:01:06.950Z,11.27
2023-03-10T04:03:33.803Z,11.01
2023-03-10T04:06:00.525Z,10.62
2023-03-10T04:08:27.245Z,10.71
2023-03-10T04:10:55.791Z,10.59
2023-03-10T04:13:22.406Z,10.54
2023-03-10T04:15:49.077Z,10.48
2023-03-10T04:18:15.845Z,10.69
2023-03-10T04:20:42.486Z,10.53
2023-03-10T04:23:09.087Z,10.32
2023-03-10T04:25:35.762Z,10.55
2023-03-10T04:28:02.499Z,10.06
2023-03-10T04:30:29.149Z,9.76
2023-03-10T04:33:00.222Z,9.82
2023-03-10T04:35:27.242Z,10.08
2023-03-10T04:37:54.172Z,10.31
2023-03-10T04:40:21.440Z,10.80
2023-03-10T04:42:48.099Z,10.99
2023-03-10T04:45:14.956Z,10.84
2023-03-10T04:47:41.693Z,10.44
2023-03-10T04:50:09.864Z,10.58
2023-03-10T04:52:36.470Z,10.52
2023-03-10T04:55:03.191Z,10.61
2023-03-10T04:57:29.812Z,10.80
2023-03-10T04:59:56.468Z,11.13
2023-03-10T05:02:23.130Z,10.78
2023-03-10T05:04:49.820Z,9.78
2023-03-10T05:07:16.590Z,9.46
2023-03-10T05:09:43.240Z,9.03
2023-03-10T05:12:10.643Z,8.84
2023-03-10T05:14:37.934Z,8.74
2023-03-10T05:17:05.089Z,8.60
2023-03-10T05:19:34.347Z,8.37
2023-03-10T05:22:01.835Z,8.30
2023-03-10T05:24:28.485Z,8.49
2023-03-10T05:26:55.099Z,8.68
2023-03-10T05:29:22.018Z,8.80
2023-03-10T05:31:48.712Z,8.89
2023-03-10T05:34:15.446Z,8.98
2023-03-10T05:36:43.299Z,8.97
2023-03-10T05:39:10.438Z,8.97
2023-03-10T05:41:38.570Z,9.10
2023-03-10T05:44:05.405Z,9.23
2023-03-10T05:46:32.120Z,9.08
2023-03-10T05:48:58.755Z,9.20
2023-03-10T05:51:25.368Z,9.11
2023-03-10T05:53:52.006Z,8.98
2023-03-10T05:56:19.687Z,8.76
2023-03-10T05:58:47.486Z,8.68
2023-03-10T06:01:15.100Z,8.67
2023-03-10T06:03:41.853Z,8.69
2023-03-10T06:06:08.649Z,8.75
2023-03-10T06:08:35.673Z,8.81
2023-03-10T06:11:02.964Z,8.93
2023-03-10T06:13:29.906Z,8.98
2023-03-10T06:15:59.480Z,8.73
2023-03-10T06:18:28.286Z,8.78
2023-03-10T06:20:55.145Z,8.83
2023-03-10T06:23:24.330Z,8.56
2023-03-10T06:26:02.776Z,8.38
2023-03-10T06:28:30.661Z,8.52
2023-03-10T06:30:57.659Z,8.63
2023-03-10T06:33:25.859Z,8.61
2023-03-10T06:35:53.370Z,8.64
2023-03-10T06:38:20.587Z,8.80
2023-03-10T06:40:47.430Z,8.87
2023-03-10T06:43:14.566Z,8.88
2023-03-10T06:45:42.803Z,8.80
2023-03-10T06:48:10.085Z,8.83
2023-03-10T06:50:43.778Z,9.11
2023-03-10T06:53:11.410Z,8.78
2023-03-10T06:55:38.530Z,9.09
2023-03-10T06:58:05.606Z,9.24
2023-03-10T07:00:32.341Z,9.52
2023-03-10T07:02:59.577Z,9.33
2023-03-10T07:05:26.551Z,9.05
2023-03-10T07:07:56.065Z,9.21
2023-03-10T07:10:23.108Z,8.93
2023-03-10T07:12:50.328Z,8.98
2023-03-10T07:15:17.061Z,8.97
2023-03-10T07:17:43.721Z,9.24
2023-03-10T07:20:11.269Z,9.53
2023-03-10T07:22:37.976Z,9.48
2023-03-10T07:25:05.068Z,9.42
2023-03-10T07:27:31.951Z,9.09
2023-03-10T07:29:58.608Z,9.13
2023-03-10T07:32:25.394Z,9.36
2023-03-10T07:34:52.118Z,9.91
2023-03-10T07:37:19.130Z,10.14
2023-03-10T07:39:46.324Z,10.32
2023-03-10T07:42:13.100Z,10.18
2023-03-10T07:44:39.756Z,10.07
2023-03-10T07:47:06.552Z,10.03
2023-03-10T07:49:34.237Z,9.81
2023-03-10T07:52:00.918Z,9.72
2023-03-10T07:54:27.788Z,9.67
2023-03-10T07:56:54.437Z,9.44
2023-03-10T07:59:21.333Z,9.39
2023-03-10T08:01:47.999Z,9.14
2023-03-10T08:04:14.842Z,9.08
2023-03-10T08:06:41.670Z,8.73
2023-03-10T08:09:08.382Z,8.54
2023-03-10T08:11:35.511Z,8.33
2023-03-10T08:14:02.318Z,8.24
2023-03-10T08:16:29.050Z,8.29
2023-03-10T08:18:55.734Z,8.06
2023-03-10T08:21:22.487Z,8.23
2023-03-10T08:23:49.374Z,8.60
2023-03-10T08:26:18.047Z,8.57
2023-03-10T08:28:45.083Z,8.73
2023-03-10T08:31:15.162Z,8.81
2023-03-10T08:33:42.840Z,8.91
2023-03-10T08:36:19.370Z,8.55
2023-03-10T08:38:46.320Z,8.55
2023-03-10T08:41:18.276Z,8.32
2023-03-10T08:43:48.503Z,8.38
2023-03-10T08:46:17.817Z,8.35
2023-03-10T08:48:44.774Z,8.49
2023-03-10T08:51:15.079Z,8.44
2023-03-10T08:53:43.699Z,8.26
2023-03-10T08:56:10.332Z,8.32
2023-03-10T08:58:36.953Z,8.19
2023-03-10T09:01:04.354Z,7.97
2023-03-10T09:03:32.009Z,7.87
2023-03-10T09:05:59.080Z,7.85
2023-03-10T09:08:27.512Z,7.56
2023-03-10T09:10:55.108Z,7.67
2023-03-10T09:13:22.972Z,7.70
2023-03-10T09:15:49.862Z,8.23
2023-03-10T09:18:16.741Z,8.02
2023-03-10T09:20:44.351Z,7.96
2023-03-10T09:23:13.966Z,7.92
2023-03-10T09:25:40.747Z,8.02
2023-03-10T09:28:08.948Z,8.02
2023-03-10T09:30:38.427Z,8.33
2023-03-10T09:33:07.821Z,8.49
2023-03-10T09:35:36.001Z,8.55
2023-03-10T09:38:04.100Z,8.60
2023-03-10T09:40:32.964Z,8.66
2023-03-10T09:43:05.848Z,8.79
2023-03-10T09:45:35.547Z,8.44
2023-03-10T09:48:17.022Z,8.38
2023-03-10T09:50:47.912Z,8.40
2023-03-10T09:53:20.390Z,8.43
2023-03-10T09:55:48.488Z,8.46
2023-03-10T09:58:41.847Z,8.49
2023-03-10T10:01:17.207Z,8.23
2023-03-10T10:04:07.110Z,8.60
2023-03-10T10:06:37.975Z,8.73
2023-03-10T10:09:42.042Z,9.08
2023-03-10T10:12:17.559Z,9.36
2023-03-10T10:14:55.100Z,9.07
2023-03-10T10:17:53.722Z,9.10
2023-03-10T10:20:36.933Z,8.94
2023-03-10T10:23:24.349Z,9.15
2023-03-10T10:25:51.514Z,8.99
2023-03-10T10:28:38.840Z,8.88
2023-03-10T10:31:17.826Z,8.80
2023-03-10T10:34:03.099Z,8.77
2023-03-10T10:36:51.636Z,8.61
2023-03-10T10:39:30.702Z,8.64
2023-03-10T10:42:12.758Z,8.91
2023-03-10T10:44:43.708Z,8.86
2023-03-10T10:47:29.004Z,8.82
2023-03-10T10:50:25.617Z,8.83
2023-03-10T10:53:18.088Z,8.95
2023-03-10T10:55:58.473Z,8.43
2023-03-10T10:58:31.014Z,8.46
2023-03-10T11:01:01.425Z,8.54
2023-03-10T11:03:42.945Z,8.59
2023-03-10T11:06:30.226Z,8.87
2023-03-10T11:09:12.844Z,9.17
2023-03-10T11:11:50.465Z,9.37
2023-03-10T11:14:23.146Z,9.40
2023-03-10T11:17:13.000Z,9.39
2023-03-10T11:20:14.523Z,9.41
2023-03-10T11:22:49.550Z,9.58
2023-03-10T11:25:52.026Z,9.78
2023-03-10T11:28:30.676Z,9.90
2023-03-10T11:31:33.294Z,9.84
2023-03-10T11:34:17.049Z,10.21
2023-03-10T11:36:56.729Z,10.37
2023-03-10T11:39:26.500Z,10.36
2023-03-10T11:42:06.261Z,10.16
2023-03-10T11:44:42.534Z,10.02
2023-03-10T11:47:41.899Z,10.24
2023-03-10T11:50:33.095Z,9.80
2023-03-10T11:53:06.532Z,9.95
2023-03-10T11:55:33.822Z,9.97
2023-03-10T11:58:04.444Z,9.92
2023-03-10T12:00:39.756Z,9.85
2023-03-10T12:03:15.342Z,9.78
2023-03-10T12:05:58.610Z,9.60
2023-03-10T12:08:31.143Z,9.16
2023-03-10T12:11:02.238Z,9.10
2023-03-10T12:13:46.225Z,9.18
2023-03-10T12:16:20.381Z,8.97
2023-03-10T12:18:47.390Z,8.82
2023-03-10T12:21:23.101Z,9.05
2023-03-10T12:23:56.934Z,9.25
2023-03-10T12:26:38.860Z,9.25
2023-03-10T12:29:20.626Z,9.60
2023-03-10T12:31:53.879Z,9.63
2023-03-10T12:34:29.638Z,9.53
2023-03-10T12:37:04.300Z,9.71
2023-03-10T12:39:35.153Z,9.65
2023-03-10T12:42:05.305Z,10.09
2023-03-10T12:44:55.840Z,10.19
2023-03-10T12:47:31.172Z,9.83
2023-03-10T12:50:03.193Z,9.38
2023-03-10T12:52:41.973Z,9.44
2023-03-10T12:55:27.307Z,9.53
2023-03-10T12:58:10.217Z,9.30
2023-03-10T13:00:55.606Z,9.64
2023-03-10T13:03:36.475Z,9.76
2023-03-10T13:06:29.622Z,9.65
2023-03-10T13:09:10.431Z,9.57
2023-03-10T13:11:48.426Z,9.48
2023-03-10T13:14:20.917Z,9.53
2023-03-10T13:16:55.424Z,9.76
2023-03-10T13:19:25.136Z,9.91
2023-03-10T13:21:52.855Z,9.88
2023-03-10T13:24:31.583Z,9.80
2023-03-10T13:27:15.819Z,10.18
2023-03-10T13:30:20.343Z,10.52
2023-03-10T13:32:54.204Z,10.62
2023-03-10T13:35:40.297Z,10.66
2023-03-10T13:38:11.302Z,10.80
2023-03-10T13:40:42.097Z,10.81
2023-03-10T13:43:41.602Z,10.80
2023-03-10T13:46:19.023Z,10.40
2023-03-10T13:48:50.415Z,10.76
2023-03-10T13:51:19.674Z,10.80
2023-03-10T13:53:48.934Z,10.55
2023-03-10T13:56:25.249Z,10.25
2023-03-10T13:58:55.459Z,10.12
2023-03-10T14:01:25.892Z,9.86
2023-03-10T14:03:59.441Z,9.85
2023-03-10T14:06:28.055Z,9.83
2023-03-10T14:08:55.335Z,10.11
2023-03-10T14:11:38.568Z,9.99
2023-03-10T14:14:05.416Z,10.19
2023-03-10T14:16:50.631Z,10.00
2023-03-10T14:19:41.879Z,9.96
2023-03-10T14:22:25.648Z,10.17
2023-03-10T14:24:52.292Z,10.22
2023-03-10T14:27:19.426Z,10.12
2023-03-10T14:29:52.128Z,10.10
2023-03-10T14:32:19.767Z,10.13
2023-03-10T14:34:47.856Z,10.13
2023-03-10T14:37:15.006Z,10.25
2023-03-10T14:39:41.744Z,10.42
2023-03-10T14:42:29.336Z,10.34
2023-03-10T14:45:07.337Z,10.27
2023-03-10T14:47:34.582Z,10.21
2023-03-10T14:50:02.251Z,10.29
2023-03-10T14:52:28.870Z,10.63
2023-03-10T14:54:55.506Z,10.47
2023-03-10T14:57:22.747Z,10.54
2023-03-10T14:59:49.925Z,10.38
2023-03-10T15:02:23.375Z,10.58
2023-03-10T15:04:50.147Z,10.57
2023-03-10T15:07:17.322Z,10.69
2023-03-10T15:09:44.672Z,10.55
2023-03-10T15:12:14.668Z,10.37
2023-03-10T15:14:46.775Z,10.34
2023-03-10T15:17:13.744Z,10.39
2023-03-10T15:19:40.350Z,10.20
2023-03-10T15:22:07.048Z,10.39
2023-03-10T15:24:33.679Z,10.14
2023-03-10T15:27:00.439Z,9.98
2023-03-10T15:29:27.276Z,9.99
2023-03-10T15:31:54.004Z,9.91
2023-03-10T15:34:20.770Z,9.95
2023-03-10T15:36:47.484Z,10.07
2023-03-10T15:39:18.980Z,10.04
2023-03-10T15:41:48.943Z,10.11
2023-03-10T15:44:16.167Z,9.86
2023-03-10T15:46:42.837Z,10.04
2023-03-10T15:49:09.479Z,9.93
2023-03-10T15:51:36.111Z,9.83
2023-03-10T15:54:02.889Z,9.88
2023-03-10T15:56:31.862Z,9.91
2023-03-10T15:58:58.522Z,9.85
2023-03-10T16:01:25.197Z,9.77
2023-03-10T16:03:51.894Z,9.92
2023-03-10T16:06:18.505Z,10.07
2023-03-10T16:08:45.121Z,10.08
2023-03-10T16:11:18.544Z,10.02
2023-03-10T16:13:46.067Z,9.99
2023-03-10T16:16:13.359Z,9.87
2023-03-10T16:18:40.037Z,9.90
2023-03-10T16:21:06.686Z,10.05
2023-03-10T16:23:34.059Z,9.93
2023-03-10T16:26:15.372Z,9.84
2023-03-10T16:28:45.324Z,9.91
2023-03-10T16:31:14.128Z,9.90
2023-03-10T16:33:42.085Z,9.95
2023-03-10T16:36:14.318Z,9.82
2023-03-10T16:38:41.229Z,9.70
2023-03-10T16:41:12.087Z,9.53
2023-03-10T16:43:39.722Z,9.38
2023-03-10T16:46:19.946Z,9.34
2023-03-10T16:48:48.068Z,9.18
2023-03-10T16:51:25.618Z,9.17
2023-03-10T16:53:54.804Z,9.01
2023-03-10T16:56:23.703Z,8.77
2023-03-10T16:58:51.298Z,8.78
2023-03-10T17:01:18.252Z,8.79
2023-03-10T17:03:45.087Z,8.86
2023-03-10T17:06:14.991Z,9.00
2023-03-10T17:08:41.776Z,9.27
2023-03-10T17:11:19.020Z,9.18
2023-03-10T17:13:46.572Z,9.18
2023-03-10T17:16:18.157Z,9.11
2023-03-10T17:18:45.089Z,9.21
2023-03-10T17:21:16.420Z,9.17
2023-03-10T17:23:44.524Z,9.10
2023-03-10T17:26:13.170Z,9.01
2023-03-10T17:28:42.328Z,9.06
2023-03-10T17:31:12.946Z,9.02
2023-03-10T17:33:41.337Z,8.73
2023-03-10T17:36:12.829Z,8.71
2023-03-10T17:38:40.702Z,8.73
2023-03-10T17:41:09.699Z,9.01
2023-03-10T17:43:37.681Z,8.94
2023-03-10T17:46:07.759Z,8.98
2023-03-10T17:48:35.355Z,8.83
2023-03-10T17:51:02.735Z,8.77
2023-03-10T17:53:29.499Z,8.94
2023-03-10T17:55:57.240Z,8.93
2023-03-10T17:58:23.952Z,8.89
2023-03-10T18:00:50.569Z,8.70
2023-03-10T18:03:17.317Z,8.85
2023-03-10T18:05:44.872Z,8.77
2023-03-10T18:08:13.200Z,8.80
2023-03-10T18:10:40.668Z,8.56
2023-03-10T18:13:10.850Z,8.55
2023-03-10T18:15:38.022Z,8.67
2023-03-10T18:18:05.193Z,8.58
2023-03-10T18:20:31.853Z,8.44
2023-03-10T18:22:58.483Z,8.51
2023-03-10T18:25:25.193Z,8.62
2023-03-10T18:27:51.807Z,8.46
2023-03-10T18:30:18.607Z,8.30
2023-03-10T18:32:46.474Z,8.16
2023-03-10T18:35:13.307Z,8.14
2023-03-10T18:37:39.956Z,8.06
2023-03-10T18:40:07.333Z,8.06
2023-03-10T18:42:33.962Z,7.87
2023-03-10T18:45:00.615Z,7.85
2023-03-10T18:47:27.357Z,7.86
2023-03-10T18:49:54.000Z,7.82
2023-03-10T18:52:20.610Z,7.71
2023-03-10T18:54:48.203Z,7.52
2023-03-10T18:57:15.291Z,7.66
2023-03-10T18:59:42.028Z,7.63
2023-03-10T19:02:15.580Z,7.62
2023-03-10T19:04:42.736Z,7.60
2023-03-10T19:07:09.344Z,7.72
2023-03-10T19:09:35.926Z,7.74
2023-03-10T19:12:02.589Z,7.73
2023-03-10T19:14:29.234Z,7.89
2023-03-10T19:16:56.254Z,7.41
2023-03-10T19:19:22.841Z,7.49
2023-03-10T19:21:49.510Z,7.49
2023-03-10T19:24:16.268Z,7.31
2023-03-10T19:26:42.906Z,7.29
2023-03-10T19:29:10.011Z,7.01
2023-03-10T19:31:36.732Z,7.21
2023-03-10T19:34:03.568Z,7.36
2023-03-10T19:36:30.233Z,7.43
2023-03-10T19:38:57.057Z,7.38
2023-03-10T19:41:23.822Z,7.37
2023-03-10T19:43:50.532Z,7.01
2023-03-10T19:46:19.135Z,6.87
2023-03-10T19:48:45.962Z,6.75
2023-03-10T19:51:23.696Z,6.68
2023-03-10T19:53:51.850Z,7.03
2023-03-10T19:56:19.235Z,6.99
2023-03-10T19:58:47.021Z,7.12
2023-03-10T20:01:21.563Z,7.17
2023-03-10T20:03:48.367Z,7.00
2023-03-10T20:06:15.176Z,7.23
2023-03-10T20:08:41.983Z,6.84
2023-03-10T20:11:08.721Z,6.86
2023-03-10T20:13:35.445Z,6.77
2023-03-10T20:16:02.152Z,7.00
2023-03-10T20:18:29.087Z,7.30
2023-03-10T20:20:55.985Z,7.32
2023-03-10T20:23:23.155Z,7.08
2023-03-10T20:25:50.322Z,7.04
2023-03-10T20:28:17.982Z,6.93
2023-03-10T20:30:45.769Z,6.62
2023-03-10T20:33:12.473Z,6.72
2023-03-10T20:35:42.179Z,6.76
2023-03-10T20:38:09.084Z,6.99
2023-03-10T20:40:35.837Z,6.91
2023-03-10T20:43:02.492Z,6.82
2023-03-10T20:45:29.169Z,7.00
2023-03-10T20:47:56.381Z,6.78
2023-03-10T20:50:23.618Z,6.68
2023-03-10T20:52:51.162Z,6.49
2023-03-10T20:55:21.827Z,6.68
2023-03-10T20:57:50.407Z,6.65
2023-03-10T21:00:20.914Z,6.56
2023-03-10T21:02:49.355Z,6.77
2023-03-10T21:05:16.025Z,6.71
2023-03-10T21:07:42.706Z,6.65
2023-03-10T21:10:12.343Z,6.72
2023-03-10T21:12:39.534Z,6.54
2023-03-10T21:15:07.936Z,6.51
2023-03-10T21:17:34.684Z,6.44
2023-03-10T21:20:01.401Z,6.40
2023-03-10T21:22:28.012Z,6.71
2023-03-10T21:24:54.651Z,6.64
2023-03-10T21:27:21.258Z,6.73
2023-03-10T21:29:47.942Z,6.48
2023-03-10T21:32:14.583Z,6.48
2023-03-10T21:34:41.218Z,6.36
2023-03-10T21:37:07.821Z,6.27
2023-03-10T21:39:34.475Z,6.62
2023-03-10T21:42:01.200Z,6.46
2023-03-10T21:44:27.857Z,6.49
2023-03-10T21:46:54.497Z,6.26
2023-03-10T21:49:21.154Z,6.50
2023-03-10T21:51:47.913Z,6.58
2023-03-10T21:54:15.007Z,6.54
2023-03-10T21:56:41.668Z,6.14
2023-03-10T21:59:11.077Z,6.27
2023-03-10T22:01:37.870Z,6.10
2023-03-10T22:04:04.720Z,6.36
2023-03-10T22:06:31.373Z,6.33
2023-03-10T22:08:58.670Z,6.28
2023-03-10T22:11:25.340Z,5.91
2023-03-10T22:13:53.201Z,6.10
2023-03-10T22:16:19.926Z,6.12
2023-03-10T22:18:46.593Z,6.29
2023-03-10T22:21:13.213Z,6.31
2023-03-10T22:23:39.899Z,6.09
2023-03-10T22:26:07.791Z,6.40
2023-03-10T22:28:34.440Z,6.27
2023-03-10T22:31:01.541Z,6.16
2023-03-10T22:33:28.271Z,6.13
2023-03-10T22:35:54.928Z,5.81
2023-03-10T22:38:21.749Z,6.09
2023-03-10T22:40:48.704Z,6.17
2023-03-10T22:43:15.892Z,6.35
2023-03-10T22:45:42.571Z,6.35
2023-03-10T22:48:09.350Z,6.13
2023-03-10T22:50:40.474Z,6.08
2023-03-10T22:53:12.299Z,6.16
2023-03-10T22:55:38.918Z,5.88
2023-03-10T22:58:07.012Z,5.71
2023-03-10T23:00:34.663Z,5.89
2023-03-10T23:03:01.850Z,5.60
2023-03-10T23:05:28.587Z,5.81
2023-03-10T23:07:56.398Z,5.89
2023-03-10T23:10:30.315Z,5.62
2023-03-10T23:13:00.611Z,5.62
2023-03-10T23:15:31.556Z,5.74
2023-03-10T23:17:58.385Z,5.77
2023-03-10T23:20:28.153Z,5.60
2023-03-10T23:22:57.638Z,5.45
2023-03-10T23:25:25.883Z,5.54
2023-03-10T23:27:52.716Z,5.57
2023-03-10T23:30:19.762Z,5.76
2023-03-10T23:32:49.261Z,6.04
2023-03-10T23:35:19.726Z,5.65
2023-03-10T23:37:46.541Z,5.56
2023-03-10T23:40:17.642Z,5.65
2023-03-10T23:42:45.185Z,5.65
2023-03-10T23:45:15.796Z,5.59
2023-03-10T23:47:43.514Z,5.49
2023-03-10T23:50:17.765Z,5.33
2023-03-10T23:52:45.227Z,5.51
2023-03-10T23:55:22.305Z,5.31
2023-03-10T23:57:49.200Z,5.33
